METAR Data
IDs: Format: Raw Decoded Include TAF

Data at: 2348 UTC 24 Apr 2019

METAR for:KDEH (Decorah Muni, IA, US)
Text:KDEH 242335Z AUTO 20007G14KT 180V240 10SM BKN120 16/08 A2981 RMK AO2
Temperature: 16.0°C ( 61°F)
Dewpoint: 8.0°C ( 46°F) [RH = 59%]
Pressure (altimeter):29.81 inches Hg (1009.6 mb)
Winds:from the SSW (200 degrees) at 8 MPH (7 knots; 3.6 m/s) gusting to 16 MPH (14 knots; 7.2 m/s)
Visibility:10 or more sm (16+ km)
Ceiling:12000 feet AGL
Clouds: broken clouds at 12000 feet AGL
QC Flag:automated observation with no human augmentation